createdAt,value
2022-12-24T00:01:33.375Z,10.90
2022-12-24T00:04:00.075Z,10.90
2022-12-24T00:06:26.672Z,11.10
2022-12-24T00:08:53.315Z,11.10
2022-12-24T00:11:20.511Z,11.20
2022-12-24T00:13:47.289Z,11.20
2022-12-24T00:16:13.966Z,11.20
2022-12-24T00:18:45.840Z,11.30
2022-12-24T00:21:13.967Z,11.30
2022-12-24T00:23:41.025Z,11.40
2022-12-24T00:26:07.606Z,11.40
2022-12-24T00:28:34.347Z,11.40
2022-12-24T00:31:06.835Z,11.50
2022-12-24T00:33:33.492Z,11.40
2022-12-24T00:36:00.105Z,11.40
2022-12-24T00:38:26.836Z,11.40
2022-12-24T00:40:57.955Z,11.40
2022-12-24T00:43:24.532Z,11.50
2022-12-24T00:45:51.129Z,11.50
2022-12-24T00:48:17.810Z,11.40
2022-12-24T00:50:44.417Z,11.40
2022-12-24T00:53:11.024Z,11.40
2022-12-24T00:55:37.618Z,11.40
2022-12-24T00:58:04.330Z,11.40
2022-12-24T01:00:30.975Z,11.40
2022-12-24T01:02:57.719Z,11.50
2022-12-24T01:05:24.642Z,11.40
2022-12-24T01:07:51.203Z,11.40
2022-12-24T01:10:19.481Z,11.50
2022-12-24T01:12:46.306Z,11.40
2022-12-24T01:15:13.507Z,11.40
2022-12-24T01:17:40.702Z,11.40
2022-12-24T01:20:17.171Z,11.30
2022-12-24T01:22:43.825Z,11.30
2022-12-24T01:25:10.730Z,11.30
2022-12-24T01:27:37.646Z,11.20
2022-12-24T01:30:08.070Z,11.20
2022-12-24T01:32:34.811Z,11.30
2022-12-24T01:35:01.414Z,11.20
2022-12-24T01:37:28.013Z,11.20
2022-12-24T01:40:14.565Z,11.20
2022-12-24T01:43:01.605Z,11.20
2022-12-24T01:45:39.512Z,11.20
2022-12-24T01:48:12.119Z,11.20
2022-12-24T01:50:38.691Z,11.20
2022-12-24T01:53:06.091Z,11.20
2022-12-24T01:55:32.695Z,11.20
2022-12-24T01:57:59.408Z,11.20
2022-12-24T02:00:26.104Z,11.20
2022-12-24T02:02:53.876Z,11.30
2022-12-24T02:05:20.562Z,11.30
2022-12-24T02:07:47.504Z,11.30
2022-12-24T02:10:14.520Z,11.30
2022-12-24T02:12:42.151Z,11.30
2022-12-24T02:15:10.042Z,11.20
2022-12-24T02:17:44.460Z,11.20
2022-12-24T02:20:36.249Z,11.30
2022-12-24T02:23:21.605Z,11.30
2022-12-24T02:25:48.139Z,11.30
2022-12-24T02:28:33.405Z,11.20
2022-12-24T02:31:06.050Z,11.20
2022-12-24T02:33:38.016Z,11.20
2022-12-24T02:36:18.549Z,11.20
2022-12-24T02:38:59.451Z,11.20
2022-12-24T02:41:49.832Z,11.30
2022-12-24T02:44:17.909Z,11.20
2022-12-24T02:46:45.128Z,11.20
2022-12-24T02:49:12.454Z,11.20
2022-12-24T02:51:39.121Z,11.20
2022-12-24T02:54:06.101Z,11.20
2022-12-24T02:56:32.665Z,11.20
2022-12-24T02:59:18.139Z,11.40
2022-12-24T03:01:44.827Z,11.20
2022-12-24T03:04:16.564Z,11.20
2022-12-24T03:06:44.965Z,11.30
2022-12-24T03:09:20.178Z,11.30
2022-12-24T03:11:50.668Z,11.20
2022-12-24T03:14:17.906Z,11.20
2022-12-24T03:16:45.243Z,11.20
2022-12-24T03:19:12.032Z,11.30
2022-12-24T03:21:40.127Z,11.30
2022-12-24T03:24:06.752Z,11.30
2022-12-24T03:26:34.020Z,11.30
2022-12-24T03:29:03.807Z,11.30
2022-12-24T03:31:39.805Z,11.30
2022-12-24T03:34:06.478Z,11.20
2022-12-24T03:36:33.034Z,11.20
2022-12-24T03:38:59.598Z,11.20
2022-12-24T03:41:26.199Z,11.20
2022-12-24T03:43:52.753Z,11.20
2022-12-24T03:46:19.361Z,11.20
2022-12-24T03:48:46.032Z,11.20
2022-12-24T03:51:20.241Z,11.20
2022-12-24T03:53:47.158Z,11.20
2022-12-24T03:56:14.139Z,11.10
2022-12-24T03:58:40.723Z,11.10
2022-12-24T04:01:07.519Z,11.20
2022-12-24T04:03:34.157Z,11.10
2022-12-24T04:06:05.332Z,11.10
2022-12-24T04:08:32.381Z,11.20
2022-12-24T04:11:02.299Z,11.20
2022-12-24T04:13:31.595Z,11.10
2022-12-24T04:16:24.830Z,11.10
2022-12-24T04:18:51.488Z,11.10
2022-12-24T04:21:18.149Z,11.10
2022-12-24T04:23:44.791Z,11.20
2022-12-24T04:26:12.613Z,11.20
2022-12-24T04:28:39.914Z,11.20
2022-12-24T04:31:07.946Z,11.10
2022-12-24T04:33:34.626Z,11.10
2022-12-24T04:36:02.159Z,11.10
2022-12-24T04:38:29.158Z,11.20
2022-12-24T04:41:22.748Z,13.40
2022-12-24T04:43:50.975Z,11.20
2022-12-24T04:46:19.352Z,11.20
2022-12-24T04:48:47.222Z,11.20
2022-12-24T04:51:14.286Z,11.10
2022-12-24T04:53:41.768Z,11.20
2022-12-24T04:56:15.815Z,11.10
2022-12-24T04:58:42.545Z,11.10
2022-12-24T05:01:12.108Z,11.20
2022-12-24T05:03:38.750Z,11.10
2022-12-24T05:06:06.243Z,11.20
2022-12-24T05:08:33.799Z,11.10
2022-12-24T05:11:01.670Z,11.20
2022-12-24T05:13:36.702Z,11.20
2022-12-24T05:16:09.418Z,11.20
2022-12-24T05:18:36.245Z,11.20
2022-12-24T05:21:02.895Z,11.20
2022-12-24T05:23:47.932Z,11.10
2022-12-24T05:26:22.572Z,11.20
2022-12-24T05:28:50.385Z,11.20
2022-12-24T05:31:17.358Z,11.20
2022-12-24T05:33:43.985Z,11.10
2022-12-24T05:36:10.631Z,11.20
2022-12-24T05:38:37.594Z,11.10
2022-12-24T05:41:04.485Z,11.10
2022-12-24T05:43:31.388Z,11.00
2022-12-24T05:46:01.657Z,11.00
2022-12-24T05:48:28.346Z,11.10
2022-12-24T05:50:54.927Z,11.10
2022-12-24T05:53:21.924Z,11.20
2022-12-24T05:55:48.621Z,11.10
2022-12-24T05:58:15.621Z,11.20
2022-12-24T06:00:42.621Z,11.20
2022-12-24T06:03:09.229Z,11.10
2022-12-24T06:05:35.815Z,11.10
2022-12-24T06:08:02.538Z,11.10
2022-12-24T06:10:29.129Z,11.00
2022-12-24T06:12:55.935Z,11.00
2022-12-24T06:15:24.360Z,11.10
2022-12-24T06:17:51.046Z,11.10
2022-12-24T06:20:17.644Z,11.10
2022-12-24T06:22:44.213Z,11.10
2022-12-24T06:25:10.804Z,11.10
2022-12-24T06:27:37.408Z,11.00
2022-12-24T06:30:04.227Z,11.00
2022-12-24T06:32:31.026Z,11.00
2022-12-24T06:34:57.597Z,10.90
2022-12-24T06:37:24.219Z,10.80
2022-12-24T06:39:50.790Z,10.80
2022-12-24T06:42:17.402Z,10.80
2022-12-24T06:44:43.976Z,10.80
2022-12-24T06:47:10.537Z,10.80
2022-12-24T06:49:37.173Z,10.80
2022-12-24T06:52:03.817Z,10.70
2022-12-24T06:54:30.530Z,10.70
2022-12-24T06:56:57.995Z,10.70
2022-12-24T06:59:24.798Z,10.60
2022-12-24T07:01:51.488Z,10.60
2022-12-24T07:04:20.529Z,10.50
2022-12-24T07:06:47.447Z,10.50
2022-12-24T07:09:14.567Z,10.50
2022-12-24T07:11:41.124Z,10.40
2022-12-24T07:14:07.843Z,10.40
2022-12-24T07:16:34.639Z,10.40
2022-12-24T07:19:01.408Z,10.40
2022-12-24T07:21:28.050Z,10.20
2022-12-24T07:23:54.692Z,10.20
2022-12-24T07:26:21.297Z,10.10
2022-12-24T07:28:47.976Z,10.20
2022-12-24T07:31:14.593Z,10.20
2022-12-24T07:33:41.244Z,10.20
2022-12-24T07:36:10.121Z,10.20
2022-12-24T07:38:37.860Z,10.10
2022-12-24T07:41:04.447Z,10.10
2022-12-24T07:43:32.624Z,10.10
2022-12-24T07:45:59.271Z,10.10
2022-12-24T07:48:26.579Z,10.20
2022-12-24T07:50:53.318Z,10.10
2022-12-24T07:53:19.923Z,10.20
2022-12-24T07:55:46.519Z,10.20
2022-12-24T07:58:13.174Z,10.20
2022-12-24T08:00:39.854Z,10.20
2022-12-24T08:03:06.498Z,10.20
2022-12-24T08:05:36.492Z,10.20
2022-12-24T08:08:03.140Z,10.20
2022-12-24T08:10:29.874Z,10.20
2022-12-24T08:12:56.448Z,10.20
2022-12-24T08:15:23.064Z,10.30
2022-12-24T08:17:49.745Z,10.30
2022-12-24T08:20:17.342Z,10.30
2022-12-24T08:22:43.928Z,10.30
2022-12-24T08:25:10.584Z,10.30
2022-12-24T08:27:37.149Z,10.30
2022-12-24T08:30:04.416Z,10.30
2022-12-24T08:32:31.002Z,10.30
2022-12-24T08:34:57.576Z,10.20
2022-12-24T08:37:24.183Z,10.30
2022-12-24T08:39:50.820Z,10.30
2022-12-24T08:42:17.417Z,10.30
2022-12-24T08:44:44.128Z,10.30
2022-12-24T08:47:10.705Z,10.30
2022-12-24T08:49:37.278Z,10.20
2022-12-24T08:52:04.016Z,10.30
2022-12-24T08:54:30.590Z,10.30
2022-12-24T08:56:57.172Z,10.20
2022-12-24T08:59:23.861Z,10.20
2022-12-24T09:01:50.559Z,10.10
2022-12-24T09:04:17.277Z,10.20
2022-12-24T09:06:43.882Z,10.20
2022-12-24T09:09:10.484Z,10.20
2022-12-24T09:11:37.102Z,10.30
2022-12-24T09:14:03.784Z,10.60
2022-12-24T09:16:30.459Z,10.40
2022-12-24T09:18:57.586Z,10.30
2022-12-24T09:21:24.213Z,10.40
2022-12-24T09:23:50.798Z,10.50
2022-12-24T09:26:24.711Z,10.70
2022-12-24T09:28:51.550Z,10.50
2022-12-24T09:31:18.635Z,10.50
2022-12-24T09:33:46.320Z,10.60
2022-12-24T09:36:12.968Z,10.50
2022-12-24T09:38:40.326Z,10.50
2022-12-24T09:41:35.992Z,12.00
2022-12-24T09:44:06.775Z,10.60
2022-12-24T09:46:37.650Z,10.60
2022-12-24T09:49:15.730Z,10.50
2022-12-24T09:51:47.587Z,10.60
2022-12-24T09:54:34.402Z,10.60
2022-12-24T09:57:02.832Z,10.60
2022-12-24T09:59:35.382Z,10.60
2022-12-24T10:02:02.233Z,10.70
2022-12-24T10:04:31.169Z,10.60
2022-12-24T10:07:03.978Z,10.60
2022-12-24T10:09:42.972Z,10.70
2022-12-24T10:12:16.500Z,10.70
2022-12-24T10:14:43.097Z,10.70
2022-12-24T10:17:24.490Z,10.70
2022-12-24T10:20:14.324Z,10.80
2022-12-24T10:22:40.892Z,10.90
2022-12-24T10:25:20.482Z,11.00
2022-12-24T10:27:47.548Z,11.10
2022-12-24T10:30:17.504Z,11.10
2022-12-24T10:32:44.337Z,11.20
2022-12-24T10:35:16.855Z,11.10
2022-12-24T10:37:44.412Z,11.00
2022-12-24T10:40:16.583Z,10.90
2022-12-24T10:42:48.363Z,10.90
2022-12-24T10:45:18.538Z,11.00
2022-12-24T10:47:46.366Z,10.90
2022-12-24T10:50:13.763Z,12.30
2022-12-24T10:52:42.255Z,10.90
2022-12-24T10:55:11.381Z,10.90
2022-12-24T10:57:38.709Z,10.90
2022-12-24T11:00:06.419Z,10.90
2022-12-24T11:02:33.264Z,11.00
2022-12-24T11:05:00.883Z,11.00
2022-12-24T11:07:28.676Z,11.00
2022-12-24T11:09:57.065Z,11.00
2022-12-24T11:12:25.322Z,11.10
2022-12-24T11:15:07.408Z,11.10
2022-12-24T11:17:34.335Z,11.20
2022-12-24T11:20:03.314Z,11.30
2022-12-24T11:22:30.960Z,11.50
2022-12-24T11:25:18.481Z,11.40
2022-12-24T11:27:49.634Z,11.40
2022-12-24T11:30:16.445Z,11.40
2022-12-24T11:32:47.442Z,11.50
2022-12-24T11:35:17.157Z,11.70
2022-12-24T11:37:43.772Z,11.80
2022-12-24T11:40:21.585Z,12.00
2022-12-24T11:42:53.090Z,12.30
2022-12-24T11:45:24.595Z,12.40
2022-12-24T11:47:52.134Z,12.20
2022-12-24T11:50:28.119Z,12.00
2022-12-24T11:53:20.898Z,11.90
2022-12-24T11:55:52.729Z,11.70
2022-12-24T11:58:40.974Z,11.60
2022-12-24T12:01:26.177Z,11.50
2022-12-24T12:03:58.377Z,11.60
2022-12-24T12:06:31.455Z,11.50
2022-12-24T12:09:02.510Z,11.60
2022-12-24T12:11:29.861Z,11.60
2022-12-24T12:13:58.215Z,11.70
2022-12-24T12:17:00.611Z,11.70
2022-12-24T12:19:29.990Z,11.80
2022-12-24T12:21:58.303Z,11.80
2022-12-24T12:24:33.464Z,11.80
2022-12-24T12:27:19.198Z,11.90
2022-12-24T12:29:52.624Z,11.90
2022-12-24T12:32:28.259Z,11.90
2022-12-24T12:35:27.203Z,12.00
2022-12-24T12:38:11.035Z,11.80
2022-12-24T12:41:00.785Z,11.80
2022-12-24T12:43:42.462Z,12.00
2022-12-24T12:46:12.585Z,12.00
2022-12-24T12:48:48.632Z,11.90
2022-12-24T12:51:41.737Z,12.00
2022-12-24T12:54:08.324Z,11.90
2022-12-24T12:56:36.244Z,11.80
2022-12-24T12:59:07.694Z,11.80
2022-12-24T13:01:40.336Z,12.90
2022-12-24T13:04:25.757Z,11.70
2022-12-24T13:07:01.502Z,11.60
2022-12-24T13:09:40.325Z,11.60
2022-12-24T13:12:25.901Z,11.60
2022-12-24T13:15:04.762Z,11.60
2022-12-24T13:17:31.322Z,11.60
2022-12-24T13:20:00.964Z,11.70
2022-12-24T13:22:27.573Z,11.70
2022-12-24T13:24:55.338Z,11.70
2022-12-24T13:27:25.998Z,11.70
2022-12-24T13:29:55.535Z,11.80
2022-12-24T13:32:22.115Z,12.00
2022-12-24T13:34:56.610Z,12.10
2022-12-24T13:37:29.158Z,12.10
2022-12-24T13:40:02.123Z,12.10
2022-12-24T13:42:47.231Z,11.90
2022-12-24T13:45:29.193Z,11.80
2022-12-24T13:48:16.198Z,11.70
2022-12-24T13:50:50.269Z,11.70
2022-12-24T13:53:52.501Z,11.50
2022-12-24T13:56:19.065Z,11.50
2022-12-24T13:59:05.922Z,11.40
2022-12-24T14:01:34.600Z,11.70
2022-12-24T14:04:02.451Z,11.20
2022-12-24T14:06:33.578Z,11.10
2022-12-24T14:09:09.269Z,11.10
2022-12-24T14:11:58.904Z,11.10
2022-12-24T14:14:38.676Z,11.10
2022-12-24T14:17:14.088Z,11.00
2022-12-24T14:19:46.225Z,11.00
2022-12-24T14:22:25.121Z,10.90
2022-12-24T14:24:55.228Z,10.80
2022-12-24T14:27:25.193Z,10.80
2022-12-24T14:29:55.774Z,10.80
2022-12-24T14:32:22.362Z,10.70
2022-12-24T14:35:05.110Z,10.60
2022-12-24T14:37:34.822Z,10.60
2022-12-24T14:40:01.595Z,10.40
2022-12-24T14:42:40.362Z,10.40
2022-12-24T14:45:22.156Z,10.40
2022-12-24T14:48:01.185Z,10.30
2022-12-24T14:50:39.282Z,10.30
2022-12-24T14:53:26.285Z,10.20
2022-12-24T14:55:52.863Z,10.20
2022-12-24T14:58:32.542Z,10.20
2022-12-24T15:01:14.265Z,10.20
2022-12-24T15:03:40.963Z,10.10
2022-12-24T15:06:10.636Z,10.00
2022-12-24T15:08:38.580Z,10.00
2022-12-24T15:11:06.731Z,10.10
2022-12-24T15:13:36.669Z,10.00
2022-12-24T15:16:05.524Z,9.90
2022-12-24T15:18:33.069Z,9.90
2022-12-24T15:21:04.409Z,9.90
2022-12-24T15:23:33.508Z,9.90
2022-12-24T15:26:15.926Z,9.90
2022-12-24T15:28:42.948Z,9.80
2022-12-24T15:31:17.409Z,9.80
2022-12-24T15:33:44.990Z,9.80
2022-12-24T15:36:12.263Z,9.80
2022-12-24T15:38:45.623Z,11.50
2022-12-24T15:41:17.667Z,9.60
2022-12-24T15:43:45.566Z,9.60
2022-12-24T15:46:22.347Z,9.60
2022-12-24T15:48:49.678Z,9.50
2022-12-24T15:51:24.543Z,9.50
2022-12-24T15:53:52.721Z,9.50
2022-12-24T15:56:34.331Z,9.50
2022-12-24T15:59:17.709Z,9.50
2022-12-24T16:01:44.910Z,9.50
2022-12-24T16:04:13.462Z,9.40
2022-12-24T16:06:52.053Z,9.40
2022-12-24T16:09:37.482Z,9.40
2022-12-24T16:12:04.275Z,9.40
2022-12-24T16:14:32.031Z,9.40
2022-12-24T16:16:58.704Z,9.40
2022-12-24T16:19:27.781Z,9.30
2022-12-24T16:21:58.446Z,9.30
2022-12-24T16:24:29.252Z,9.30
2022-12-24T16:26:56.307Z,9.30
2022-12-24T16:29:23.449Z,9.20
2022-12-24T16:31:51.403Z,9.20
2022-12-24T16:34:18.518Z,9.30
2022-12-24T16:36:45.711Z,9.30
2022-12-24T16:39:25.536Z,9.30
2022-12-24T16:42:11.424Z,9.30
2022-12-24T16:44:38.086Z,9.30
2022-12-24T16:47:06.543Z,9.30
2022-12-24T16:49:36.421Z,9.30
2022-12-24T16:52:03.067Z,9.50
2022-12-24T16:54:30.088Z,9.20
2022-12-24T16:56:56.759Z,9.30
2022-12-24T16:59:24.144Z,9.20
2022-12-24T17:01:52.123Z,9.20
2022-12-24T17:04:19.155Z,9.10
2022-12-24T17:06:48.917Z,9.10
2022-12-24T17:09:15.518Z,9.20
2022-12-24T17:11:42.155Z,9.20
2022-12-24T17:14:14.971Z,9.20
2022-12-24T17:16:44.870Z,9.20
2022-12-24T17:19:11.449Z,10.30
2022-12-24T17:21:38.033Z,9.20
2022-12-24T17:24:04.744Z,9.20
2022-12-24T17:26:31.382Z,9.20
2022-12-24T17:28:57.971Z,9.20
2022-12-24T17:31:24.821Z,9.20
2022-12-24T17:33:52.024Z,9.20
2022-12-24T17:36:19.210Z,9.30
2022-12-24T17:38:45.829Z,9.20
2022-12-24T17:41:14.098Z,9.20
2022-12-24T17:43:40.782Z,9.30
2022-12-24T17:46:13.300Z,9.40
2022-12-24T17:48:39.931Z,9.20
2022-12-24T17:51:07.904Z,9.30
2022-12-24T17:53:35.404Z,9.20
2022-12-24T17:56:02.038Z,9.40
2022-12-24T17:58:29.060Z,9.40
2022-12-24T18:00:56.147Z,9.50
2022-12-24T18:03:23.115Z,9.50
2022-12-24T18:05:49.754Z,9.50
2022-12-24T18:08:16.434Z,9.50
2022-12-24T18:10:43.009Z,9.50
2022-12-24T18:13:15.512Z,9.50
2022-12-24T18:15:45.656Z,9.50
2022-12-24T18:18:12.572Z,9.50
2022-12-24T18:20:46.025Z,9.50
2022-12-24T18:23:13.438Z,9.50
2022-12-24T18:25:40.024Z,9.40
2022-12-24T18:28:06.617Z,9.40
2022-12-24T18:30:33.222Z,9.40
2022-12-24T18:33:00.346Z,9.40
2022-12-24T18:35:28.198Z,9.40
2022-12-24T18:37:54.848Z,9.40
2022-12-24T18:40:21.541Z,9.40
2022-12-24T18:42:48.150Z,9.40
2022-12-24T18:45:14.803Z,9.40
2022-12-24T18:47:41.493Z,9.30
2022-12-24T18:50:08.237Z,9.40
2022-12-24T18:52:35.479Z,9.40
2022-12-24T18:55:02.075Z,9.50
2022-12-24T18:57:30.664Z,9.40
2022-12-24T18:59:57.247Z,9.40
2022-12-24T19:02:24.000Z,9.40
2022-12-24T19:04:50.846Z,9.40
2022-12-24T19:07:17.455Z,9.40
2022-12-24T19:09:48.218Z,9.40
2022-12-24T19:12:15.513Z,9.40
2022-12-24T19:14:42.302Z,9.40
2022-12-24T19:17:08.944Z,9.40
2022-12-24T19:19:35.607Z,9.30
2022-12-24T19:22:02.262Z,9.30
2022-12-24T19:24:28.907Z,9.30
2022-12-24T19:26:55.497Z,11.50
2022-12-24T19:29:22.082Z,9.30
2022-12-24T19:31:48.927Z,9.40
2022-12-24T19:34:15.628Z,9.30
2022-12-24T19:36:42.304Z,9.30
2022-12-24T19:39:08.922Z,9.30
2022-12-24T19:41:35.529Z,9.30
2022-12-24T19:44:02.338Z,9.30
2022-12-24T19:46:30.649Z,9.50
2022-12-24T19:48:58.757Z,9.80
2022-12-24T19:51:25.803Z,9.30
2022-12-24T19:53:53.510Z,9.30
2022-12-24T19:56:20.929Z,9.40
2022-12-24T19:58:48.058Z,9.30
2022-12-24T20:01:16.458Z,9.20
2022-12-24T20:03:44.300Z,9.20
2022-12-24T20:06:10.964Z,9.30
2022-12-24T20:08:38.059Z,9.30
2022-12-24T20:11:06.516Z,9.20
2022-12-24T20:13:33.759Z,9.30
2022-12-24T20:16:11.055Z,9.30
2022-12-24T20:18:38.080Z,9.20
2022-12-24T20:21:06.074Z,9.20
2022-12-24T20:23:33.058Z,9.20
2022-12-24T20:26:01.094Z,9.20
2022-12-24T20:28:28.727Z,9.20
2022-12-24T20:30:55.486Z,9.20
2022-12-24T20:33:22.218Z,9.20
2022-12-24T20:35:48.941Z,9.20
2022-12-24T20:38:15.511Z,9.20
2022-12-24T20:40:42.852Z,9.20
2022-12-24T20:43:09.896Z,9.20
2022-12-24T20:45:36.523Z,9.20
2022-12-24T20:48:03.295Z,9.10
2022-12-24T20:50:29.946Z,9.10
2022-12-24T20:52:56.665Z,9.10
2022-12-24T20:55:23.513Z,9.10
2022-12-24T20:57:50.689Z,9.10
2022-12-24T21:00:17.576Z,9.00
2022-12-24T21:02:44.324Z,9.00
2022-12-24T21:05:11.003Z,9.00
2022-12-24T21:07:42.852Z,9.00
2022-12-24T21:10:10.374Z,9.00
2022-12-24T21:12:49.261Z,9.00
2022-12-24T21:15:17.035Z,9.00
2022-12-24T21:17:43.790Z,9.00
2022-12-24T21:20:10.942Z,9.00
2022-12-24T21:22:37.881Z,9.00
2022-12-24T21:25:05.416Z,9.00
2022-12-24T21:27:32.198Z,9.00
2022-12-24T21:29:58.806Z,9.00
2022-12-24T21:32:25.559Z,9.00
2022-12-24T21:34:52.182Z,9.00
2022-12-24T21:37:19.123Z,9.00
2022-12-24T21:39:45.706Z,8.90
2022-12-24T21:42:12.430Z,8.90
2022-12-24T21:44:39.038Z,8.90
2022-12-24T21:47:05.691Z,9.00
2022-12-24T21:49:50.821Z,8.90
2022-12-24T21:52:17.402Z,8.90
2022-12-24T21:54:44.197Z,8.90
2022-12-24T21:57:29.473Z,8.90
2022-12-24T21:59:57.253Z,8.90
2022-12-24T22:02:27.699Z,8.90
2022-12-24T22:04:54.439Z,8.90
2022-12-24T22:07:40.819Z,8.90
2022-12-24T22:10:26.449Z,8.90
2022-12-24T22:12:53.663Z,8.90
2022-12-24T22:15:20.274Z,8.90
2022-12-24T22:17:46.851Z,8.90
2022-12-24T22:20:13.427Z,8.90
2022-12-24T22:22:40.019Z,8.90
2022-12-24T22:25:06.712Z,8.90
2022-12-24T22:27:33.287Z,8.90
2022-12-24T22:29:59.863Z,8.90
2022-12-24T22:32:26.463Z,8.90
2022-12-24T22:34:53.735Z,8.90
2022-12-24T22:37:20.747Z,8.90
2022-12-24T22:39:47.420Z,8.90
2022-12-24T22:42:14.197Z,8.90
2022-12-24T22:44:40.765Z,8.90
2022-12-24T22:47:07.348Z,8.90
2022-12-24T22:49:35.992Z,8.30
2022-12-24T22:52:02.748Z,8.90
2022-12-24T22:54:29.399Z,8.90
2022-12-24T22:56:55.985Z,8.90
2022-12-24T22:59:22.578Z,8.90
2022-12-24T23:01:49.327Z,8.90
2022-12-24T23:04:16.104Z,8.90
2022-12-24T23:06:44.596Z,8.90
2022-12-24T23:09:12.864Z,8.90
2022-12-24T23:11:40.430Z,8.90
2022-12-24T23:14:32.837Z,8.90
2022-12-24T23:16:59.559Z,8.90
2022-12-24T23:19:26.125Z,8.90
2022-12-24T23:21:52.730Z,8.90
2022-12-24T23:24:19.476Z,8.90
2022-12-24T23:26:46.050Z,8.90
2022-12-24T23:29:12.610Z,8.90
2022-12-24T23:31:39.299Z,8.90
2022-12-24T23:34:05.895Z,8.90
2022-12-24T23:36:32.516Z,8.90
2022-12-24T23:38:59.160Z,8.80
2022-12-24T23:41:25.747Z,8.80
2022-12-24T23:43:52.361Z,8.80
2022-12-24T23:46:19.765Z,8.80
2022-12-24T23:48:47.082Z,8.80
2022-12-24T23:51:15.315Z,8.80
2022-12-24T23:53:42.267Z,8.80
2022-12-24T23:56:11.340Z,8.80
2022-12-24T23:58:38.680Z,8.80
